createdAt,value
2022-10-14T00:01:07.590Z,8.73
2022-10-14T00:03:36.149Z,8.63
2022-10-14T00:06:07.171Z,8.20
2022-10-14T00:08:35.215Z,8.80
2022-10-14T00:11:09.187Z,9.80
2022-10-14T00:13:37.962Z,8.90
2022-10-14T00:16:06.858Z,9.70
2022-10-14T00:18:34.594Z,8.67
2022-10-14T00:21:03.353Z,9.77
2022-10-14T00:23:32.631Z,8.60
2022-10-14T00:26:00.352Z,10.20
2022-10-14T00:28:31.500Z,9.03
2022-10-14T00:31:02.020Z,8.90
2022-10-14T00:33:30.264Z,10.83
2022-10-14T00:36:04.854Z,9.17
2022-10-14T00:38:37.335Z,9.53
2022-10-14T00:41:06.115Z,8.70
2022-10-14T00:43:57.813Z,9.03
2022-10-14T00:46:26.102Z,9.80
2022-10-14T00:49:02.621Z,9.53
2022-10-14T00:51:30.444Z,9.60
2022-10-14T00:53:59.584Z,9.27
2022-10-14T00:56:30.841Z,8.40
2022-10-14T00:59:00.547Z,9.30
2022-10-14T01:01:28.278Z,8.37
2022-10-14T01:03:56.047Z,8.73
2022-10-14T01:06:37.213Z,8.57
2022-10-14T01:09:15.259Z,8.50
2022-10-14T01:12:09.803Z,8.10
2022-10-14T01:14:48.019Z,7.70
2022-10-14T01:17:27.400Z,8.33
2022-10-14T01:20:24.275Z,8.17
2022-10-14T01:23:02.383Z,7.73
2022-10-14T01:25:36.282Z,7.30
2022-10-14T01:28:22.684Z,7.67
2022-10-14T01:30:58.291Z,8.27
2022-10-14T01:33:29.383Z,7.47
2022-10-14T01:36:04.119Z,8.27
2022-10-14T01:38:38.858Z,9.77
2022-10-14T01:41:12.800Z,9.83
2022-10-14T01:43:42.017Z,9.90
2022-10-14T01:46:13.064Z,9.70
2022-10-14T01:48:46.981Z,8.77
2022-10-14T01:51:20.978Z,8.83
2022-10-14T01:53:56.979Z,9.30
2022-10-14T01:56:27.133Z,9.33
2022-10-14T01:58:55.926Z,9.20
2022-10-14T02:01:25.486Z,9.10
2022-10-14T02:03:53.410Z,9.00
2022-10-14T02:06:27.978Z,8.63
2022-10-14T02:09:13.119Z,7.83
2022-10-14T02:11:58.987Z,7.47
2022-10-14T02:14:36.617Z,8.57
2022-10-14T02:17:10.071Z,7.13
2022-10-14T02:19:45.092Z,7.47
2022-10-14T02:22:21.548Z,8.07
2022-10-14T02:24:55.174Z,7.87
2022-10-14T02:27:26.130Z,7.93
2022-10-14T02:29:57.992Z,7.63
2022-10-14T02:32:29.150Z,8.00
2022-10-14T02:34:59.560Z,7.50
2022-10-14T02:37:30.568Z,8.83
2022-10-14T02:40:06.151Z,8.13
2022-10-14T02:42:34.384Z,7.53
2022-10-14T02:45:06.442Z,8.20
2022-10-14T02:47:35.607Z,8.37
2022-10-14T02:50:03.485Z,9.00
2022-10-14T02:52:31.333Z,8.37
2022-10-14T02:54:59.180Z,7.80
2022-10-14T02:57:27.116Z,7.50
2022-10-14T02:59:57.891Z,8.07
2022-10-14T03:02:26.149Z,8.47
2022-10-14T03:04:55.299Z,8.50
2022-10-14T03:07:23.886Z,8.17
2022-10-14T03:09:53.043Z,7.80
2022-10-14T03:12:21.140Z,7.77
2022-10-14T03:14:50.226Z,8.00
2022-10-14T03:17:19.300Z,8.10
2022-10-14T03:19:49.334Z,8.30
2022-10-14T03:22:18.622Z,7.60
2022-10-14T03:24:46.542Z,7.83
2022-10-14T03:27:36.361Z,7.83
2022-10-14T03:30:09.753Z,8.13
2022-10-14T03:32:43.819Z,8.37
2022-10-14T03:35:43.466Z,8.23
2022-10-14T03:38:15.762Z,8.20
2022-10-14T03:40:43.885Z,8.17
2022-10-14T03:43:13.708Z,8.67
2022-10-14T03:45:51.985Z,8.13
2022-10-14T03:48:22.623Z,8.27
2022-10-14T03:50:50.425Z,8.77
2022-10-14T03:53:21.722Z,8.40
2022-10-14T03:55:50.422Z,7.97
2022-10-14T03:58:18.288Z,9.83
2022-10-14T04:00:51.113Z,9.70
2022-10-14T04:03:31.883Z,9.10
2022-10-14T04:06:01.099Z,7.90
2022-10-14T04:08:31.841Z,7.77
2022-10-14T04:11:07.127Z,8.23
2022-10-14T04:13:38.488Z,7.40
2022-10-14T04:16:07.063Z,7.70
2022-10-14T04:18:39.408Z,8.20
2022-10-14T04:21:13.147Z,8.17
2022-10-14T04:23:44.728Z,7.33
2022-10-14T04:26:17.151Z,9.13
2022-10-14T04:28:47.104Z,8.07
2022-10-14T04:31:25.946Z,7.67
2022-10-14T04:34:00.739Z,8.00
2022-10-14T04:36:34.466Z,7.27
2022-10-14T04:39:06.020Z,7.80
2022-10-14T04:41:33.759Z,7.40
2022-10-14T04:44:02.662Z,7.03
2022-10-14T04:46:35.724Z,7.10
2022-10-14T04:49:03.655Z,8.20
2022-10-14T04:51:36.705Z,7.03
2022-10-14T04:54:18.274Z,7.53
2022-10-14T04:56:54.802Z,7.53
2022-10-14T04:59:22.512Z,7.40
2022-10-14T05:02:08.700Z,7.73
2022-10-14T05:04:41.827Z,7.33
2022-10-14T05:07:10.306Z,7.30
2022-10-14T05:09:40.149Z,7.53
2022-10-14T05:12:19.884Z,7.83
2022-10-14T05:14:53.251Z,7.20
2022-10-14T05:17:27.226Z,7.43
2022-10-14T05:19:54.998Z,8.07
2022-10-14T05:22:25.236Z,7.67
2022-10-14T05:24:54.475Z,9.67
2022-10-14T05:27:22.302Z,10.10
2022-10-14T05:29:51.103Z,9.27
2022-10-14T05:32:19.185Z,8.90
2022-10-14T05:34:49.989Z,8.67
2022-10-14T05:37:25.809Z,8.67
2022-10-14T05:39:57.131Z,8.23
2022-10-14T05:42:27.277Z,7.77
2022-10-14T05:44:58.964Z,8.23
2022-10-14T05:47:29.041Z,7.87
2022-10-14T05:50:05.670Z,8.60
2022-10-14T05:52:35.095Z,8.80
2022-10-14T05:55:13.444Z,8.13
2022-10-14T05:57:44.259Z,8.73
2022-10-14T06:00:19.668Z,7.83
2022-10-14T06:02:55.172Z,7.70
2022-10-14T06:05:22.932Z,7.63
2022-10-14T06:07:50.663Z,7.10
2022-10-14T06:10:20.007Z,8.03
2022-10-14T06:12:47.790Z,7.53
2022-10-14T06:15:15.672Z,8.43
2022-10-14T06:17:43.440Z,8.00
2022-10-14T06:20:12.067Z,7.93
2022-10-14T06:22:39.836Z,9.17
2022-10-14T06:25:08.327Z,8.80
2022-10-14T06:27:37.515Z,7.93
2022-10-14T06:30:06.198Z,7.87
2022-10-14T06:32:34.017Z,7.57
2022-10-14T06:35:01.759Z,7.77
2022-10-14T06:37:29.459Z,7.70
2022-10-14T06:39:57.139Z,7.73
2022-10-14T06:42:25.260Z,8.70
2022-10-14T06:44:54.499Z,8.97
2022-10-14T06:47:22.363Z,8.00
2022-10-14T06:49:50.075Z,8.77
2022-10-14T06:52:17.824Z,7.70
2022-10-14T06:54:48.300Z,7.23
2022-10-14T06:57:16.865Z,7.30
2022-10-14T06:59:44.555Z,7.30
2022-10-14T07:02:13.744Z,7.00
2022-10-14T07:04:41.581Z,7.03
2022-10-14T07:07:09.637Z,6.70
2022-10-14T07:09:37.532Z,6.30
2022-10-14T07:12:05.386Z,6.63
2022-10-14T07:14:33.088Z,6.33
2022-10-14T07:17:01.228Z,6.90
2022-10-14T07:19:31.859Z,6.20
2022-10-14T07:21:59.550Z,5.93
2022-10-14T07:24:27.515Z,5.70
2022-10-14T07:26:55.276Z,5.50
2022-10-14T07:29:23.003Z,6.47
2022-10-14T07:31:50.719Z,6.30
2022-10-14T07:34:18.488Z,6.23
2022-10-14T07:36:47.718Z,6.50
2022-10-14T07:39:15.545Z,6.83
2022-10-14T07:41:43.228Z,7.90
2022-10-14T07:44:13.957Z,6.47
2022-10-14T07:46:45.263Z,6.47
2022-10-14T07:49:15.338Z,5.63
2022-10-14T07:51:43.824Z,7.00
2022-10-14T07:54:16.417Z,6.00
2022-10-14T07:56:45.439Z,5.53
2022-10-14T07:59:13.556Z,5.40
2022-10-14T08:01:42.791Z,5.87
2022-10-14T08:04:12.390Z,5.27
2022-10-14T08:06:40.183Z,5.23
2022-10-14T08:09:09.297Z,4.43
2022-10-14T08:11:38.771Z,4.60
2022-10-14T08:14:07.420Z,5.90
2022-10-14T08:16:36.575Z,4.37
2022-10-14T08:19:12.641Z,4.57
2022-10-14T08:21:43.045Z,4.83
2022-10-14T08:24:11.391Z,5.20
2022-10-14T08:26:42.113Z,3.50
2022-10-14T08:29:11.976Z,3.53
2022-10-14T08:31:39.838Z,3.70
2022-10-14T08:34:07.633Z,3.73
2022-10-14T08:36:35.375Z,3.30
2022-10-14T08:39:03.276Z,2.90
2022-10-14T08:41:54.863Z,3.30
2022-10-14T08:44:26.437Z,2.90
2022-10-14T08:46:58.304Z,2.90
2022-10-14T08:49:31.568Z,3.60
2022-10-14T08:52:02.708Z,4.57
2022-10-14T08:54:39.303Z,3.30
2022-10-14T08:57:15.435Z,3.30
2022-10-14T08:59:43.522Z,2.63
2022-10-14T09:02:21.367Z,2.50
2022-10-14T09:04:49.336Z,2.13
2022-10-14T09:07:20.123Z,2.40
2022-10-14T09:09:51.296Z,2.10
2022-10-14T09:12:25.484Z,2.87
2022-10-14T09:15:03.607Z,2.73
2022-10-14T09:17:37.951Z,2.27
2022-10-14T09:20:17.347Z,2.47
2022-10-14T09:22:46.429Z,4.07
2022-10-14T09:25:16.477Z,2.90
2022-10-14T09:30:19.085Z,1.90
2022-10-14T09:32:50.621Z,2.50
2022-10-14T09:35:24.992Z,2.00
2022-10-14T09:37:53.752Z,2.17
2022-10-14T09:40:29.600Z,2.13
2022-10-14T09:43:02.936Z,2.20
2022-10-14T09:45:46.870Z,2.53
2022-10-14T09:48:16.947Z,2.77
2022-10-14T09:50:51.500Z,1.80
2022-10-14T09:53:28.404Z,3.67
2022-10-14T09:55:58.424Z,2.73
2022-10-14T09:58:33.026Z,2.37
2022-10-14T10:01:02.651Z,1.93
2022-10-14T10:03:33.538Z,2.10
2022-10-14T10:06:04.838Z,1.90
2022-10-14T10:08:33.636Z,6.43
2022-10-14T10:11:06.936Z,2.10
2022-10-14T10:13:40.459Z,2.60
2022-10-14T10:16:20.099Z,1.80
2022-10-14T10:18:48.064Z,6.97
2022-10-14T10:21:21.037Z,1.40
2022-10-14T10:23:54.788Z,1.73
2022-10-14T10:26:27.036Z,1.93
2022-10-14T10:28:58.122Z,2.03
2022-10-14T10:34:34.384Z,3.60
2022-10-14T10:37:08.370Z,4.30
2022-10-14T10:39:45.712Z,2.10
2022-10-14T10:42:24.125Z,1.87
2022-10-14T10:45:07.388Z,2.67
2022-10-14T10:47:45.627Z,2.23
2022-10-14T10:50:25.125Z,2.20
2022-10-14T10:53:11.404Z,2.27
2022-10-14T10:58:37.820Z,2.80
2022-10-14T11:01:21.400Z,2.30
2022-10-14T11:04:00.329Z,2.83
2022-10-14T11:06:53.866Z,2.30
2022-10-14T11:09:49.216Z,4.03
2022-10-14T11:12:23.916Z,3.90
2022-10-14T11:17:54.486Z,2.63
2022-10-14T11:20:34.411Z,3.33
2022-10-14T11:23:17.680Z,2.67
2022-10-14T11:25:56.666Z,3.07
2022-10-14T11:28:31.225Z,2.97
2022-10-14T11:31:07.746Z,3.73
2022-10-14T11:33:55.932Z,2.10
2022-10-14T11:36:35.233Z,2.20
2022-10-14T11:39:35.513Z,2.33
2022-10-14T11:42:18.983Z,4.07
2022-10-14T11:44:49.457Z,2.60
2022-10-14T11:47:25.301Z,1.73
2022-10-14T11:50:02.119Z,1.77
2022-10-14T11:52:33.725Z,2.40
2022-10-14T11:55:07.731Z,4.40
2022-10-14T11:57:42.983Z,3.90
2022-10-14T12:00:28.069Z,3.80
2022-10-14T12:03:03.697Z,4.47
2022-10-14T12:05:39.876Z,2.77
2022-10-14T12:08:17.427Z,3.07
2022-10-14T12:10:48.738Z,2.37
2022-10-14T12:13:20.727Z,2.93
2022-10-14T12:15:51.435Z,4.50
2022-10-14T12:18:20.344Z,3.10
2022-10-14T12:20:56.507Z,1.50
2022-10-14T12:23:33.741Z,1.57
2022-10-14T12:26:07.784Z,1.70
2022-10-14T12:28:38.473Z,1.40
2022-10-14T12:31:25.786Z,3.10
2022-10-14T12:34:18.760Z,2.43
2022-10-14T12:36:50.486Z,1.60
2022-10-14T12:39:32.740Z,3.43
2022-10-14T12:42:04.088Z,1.30
2022-10-14T12:44:42.715Z,2.47
2022-10-14T12:47:19.681Z,2.47
2022-10-14T12:49:50.944Z,2.63
2022-10-14T12:52:24.834Z,1.80
2022-10-14T12:57:31.700Z,2.80
2022-10-14T13:00:02.587Z,1.70
2022-10-14T13:02:33.616Z,2.20
2022-10-14T13:05:04.144Z,2.67
2022-10-14T13:07:46.388Z,1.93
2022-10-14T13:10:52.440Z,3.90
2022-10-14T13:13:50.155Z,2.00
2022-10-14T13:17:03.650Z,2.03
2022-10-14T13:19:47.766Z,2.33
2022-10-14T13:22:44.997Z,2.27
2022-10-14T13:25:21.295Z,1.90
2022-10-14T13:27:56.410Z,2.83
2022-10-14T13:30:34.153Z,2.33
2022-10-14T13:33:12.751Z,2.30
2022-10-14T13:35:54.330Z,2.70
2022-10-14T13:38:24.759Z,3.80
2022-10-14T13:40:54.986Z,1.67
2022-10-14T13:43:27.057Z,2.70
2022-10-14T13:46:04.286Z,3.80
2022-10-14T13:48:35.665Z,1.50
2022-10-14T13:51:36.192Z,2.00
2022-10-14T13:54:18.003Z,2.13
2022-10-14T13:57:12.634Z,2.17
2022-10-14T14:00:19.536Z,4.20
2022-10-14T14:02:40.976Z,3.00
2022-10-14T14:05:17.147Z,3.10
2022-10-14T14:10:39.236Z,4.17
2022-10-14T14:13:14.967Z,3.10
2022-10-14T14:15:43.440Z,3.37
2022-10-14T14:18:33.833Z,2.70
2022-10-14T14:21:13.153Z,2.93
2022-10-14T14:23:50.514Z,2.70
2022-10-14T14:26:20.734Z,4.47
2022-10-14T14:28:50.049Z,9.53
2022-10-14T14:31:20.755Z,4.20
2022-10-14T14:33:48.746Z,3.20
2022-10-14T14:36:27.710Z,2.80
2022-10-14T14:39:02.976Z,2.40
2022-10-14T14:41:33.703Z,2.40
2022-10-14T14:44:24.448Z,3.17
2022-10-14T14:46:53.696Z,2.93
2022-10-14T14:49:25.533Z,2.50
2022-10-14T14:51:53.806Z,2.60
2022-10-14T14:54:23.558Z,4.30
2022-10-14T14:56:55.993Z,3.57
2022-10-14T14:59:29.657Z,2.83
2022-10-14T15:04:29.206Z,3.73
2022-10-14T15:07:00.447Z,8.37
2022-10-14T15:09:37.707Z,2.90
2022-10-14T15:12:15.577Z,6.60
2022-10-14T15:14:46.340Z,3.10
2022-10-14T15:17:30.157Z,3.03
2022-10-14T15:20:00.157Z,2.90
2022-10-14T15:22:38.251Z,4.07
2022-10-14T15:25:09.379Z,4.00
2022-10-14T15:27:53.638Z,3.27
2022-10-14T15:30:35.663Z,5.20
2022-10-14T15:33:17.147Z,6.53
2022-10-14T15:35:46.418Z,3.40
2022-10-14T15:38:16.466Z,4.90
2022-10-14T15:40:45.143Z,6.70
2022-10-14T15:43:17.688Z,5.00
2022-10-14T15:46:10.540Z,5.17
2022-10-14T15:48:40.356Z,6.60
2022-10-14T15:51:08.116Z,5.67
2022-10-14T15:53:36.530Z,5.00
2022-10-14T15:56:06.028Z,4.70
2022-10-14T15:58:35.091Z,5.67
2022-10-14T16:01:04.903Z,4.30
2022-10-14T16:03:36.055Z,4.33
2022-10-14T16:06:10.961Z,4.77
2022-10-14T16:08:39.523Z,4.70
2022-10-14T16:11:21.752Z,5.73
2022-10-14T16:13:50.805Z,7.10
2022-10-14T16:16:23.136Z,5.00
2022-10-14T16:18:50.879Z,4.47
2022-10-14T16:21:18.600Z,3.70
2022-10-14T16:23:46.296Z,3.43
2022-10-14T16:26:14.365Z,3.10
2022-10-14T16:28:42.400Z,3.70
2022-10-14T16:31:13.835Z,2.90
2022-10-14T16:33:44.792Z,3.83
2022-10-14T16:36:16.195Z,3.57
2022-10-14T16:38:44.084Z,4.17
2022-10-14T16:41:12.862Z,5.17
2022-10-14T16:43:40.567Z,4.10
2022-10-14T16:46:11.700Z,6.70
2022-10-14T16:48:43.826Z,5.30
2022-10-14T16:51:11.581Z,5.63
2022-10-14T16:53:43.822Z,5.53
2022-10-14T16:56:35.516Z,5.57
2022-10-14T16:59:03.792Z,6.73
2022-10-14T17:01:32.180Z,6.17
2022-10-14T17:04:01.362Z,9.00
2022-10-14T17:06:29.198Z,5.67
2022-10-14T17:08:57.027Z,6.43
2022-10-14T17:11:27.246Z,6.40
2022-10-14T17:13:57.354Z,5.47
2022-10-14T17:16:26.276Z,6.17
2022-10-14T17:18:53.999Z,4.30
2022-10-14T17:21:24.253Z,4.70
2022-10-14T17:23:51.908Z,4.47
2022-10-14T17:26:20.486Z,4.70
2022-10-14T17:28:49.304Z,4.77
2022-10-14T17:31:20.058Z,4.20
2022-10-14T17:33:48.156Z,4.87
2022-10-14T17:36:19.534Z,4.80
2022-10-14T17:38:50.697Z,7.30
2022-10-14T17:41:19.365Z,8.60
2022-10-14T17:43:49.444Z,8.40
2022-10-14T17:46:19.084Z,7.80
2022-10-14T17:48:50.391Z,7.63
2022-10-14T17:51:20.247Z,5.63
2022-10-14T17:53:49.474Z,5.17
2022-10-14T17:56:17.130Z,5.43
2022-10-14T17:58:44.821Z,5.13
2022-10-14T18:01:14.968Z,5.43
2022-10-14T18:03:44.703Z,5.20
2022-10-14T18:06:14.329Z,5.00
2022-10-14T18:08:42.800Z,5.50
2022-10-14T18:11:12.989Z,5.07
2022-10-14T18:13:41.037Z,5.43
2022-10-14T18:16:11.911Z,6.27
2022-10-14T18:18:39.690Z,5.13
2022-10-14T18:21:08.017Z,5.13
2022-10-14T18:23:39.001Z,5.30
2022-10-14T18:26:12.577Z,5.90
2022-10-14T18:28:45.055Z,5.90
2022-10-14T18:31:15.236Z,5.87
2022-10-14T18:33:44.788Z,5.80
2022-10-14T18:36:17.093Z,5.83
2022-10-14T18:38:50.899Z,4.73
2022-10-14T18:41:18.802Z,5.17
2022-10-14T18:43:48.300Z,6.43
2022-10-14T18:46:18.026Z,7.70
2022-10-14T18:48:48.020Z,6.57
2022-10-14T18:51:17.842Z,5.60
2022-10-14T18:53:47.393Z,4.77
2022-10-14T18:56:17.939Z,5.53
2022-10-14T18:58:48.495Z,4.50
2022-10-14T19:01:17.443Z,4.40
2022-10-14T19:03:47.209Z,4.87
2022-10-14T19:06:15.978Z,4.47
2022-10-14T19:08:45.483Z,4.53
2022-10-14T19:11:17.911Z,4.80
2022-10-14T19:13:47.440Z,4.53
2022-10-14T19:16:17.735Z,4.80
2022-10-14T19:18:45.543Z,5.57
2022-10-14T19:21:15.247Z,6.47
2022-10-14T19:23:45.035Z,4.97
2022-10-14T19:28:43.157Z,5.43
2022-10-14T19:31:14.079Z,6.33
2022-10-14T19:33:43.311Z,6.90
2022-10-14T19:36:12.240Z,6.00
2022-10-14T19:38:40.543Z,6.50
2022-10-14T19:41:09.496Z,5.13
2022-10-14T19:43:37.176Z,4.80
2022-10-14T19:46:07.930Z,4.93
2022-10-14T19:48:37.123Z,4.40
2022-10-14T19:51:09.120Z,4.70
2022-10-14T19:53:37.351Z,4.07
2022-10-14T19:56:11.197Z,4.63
2022-10-14T19:58:42.363Z,4.37
2022-10-14T20:01:14.812Z,4.33
2022-10-14T20:03:44.309Z,4.10
2022-10-14T20:06:14.279Z,4.20
2022-10-14T20:08:42.875Z,4.43
2022-10-14T20:11:12.888Z,4.50
2022-10-14T20:13:40.828Z,5.77
2022-10-14T20:16:10.305Z,4.67
2022-10-14T20:18:38.053Z,5.03
2022-10-14T20:21:08.533Z,4.47
2022-10-14T20:23:38.192Z,4.27
2022-10-14T20:26:07.462Z,4.47
2022-10-14T20:28:36.063Z,5.03
2022-10-14T20:31:04.078Z,4.70
2022-10-14T20:33:32.571Z,6.03
2022-10-14T20:36:01.010Z,4.17
2022-10-14T20:38:30.284Z,3.93
2022-10-14T20:41:04.387Z,4.33
2022-10-14T20:43:32.117Z,4.60
2022-10-14T20:45:59.869Z,4.40
2022-10-14T20:48:27.655Z,4.93
2022-10-14T20:50:55.333Z,3.90
2022-10-14T20:53:23.333Z,4.13
2022-10-14T20:55:52.637Z,7.43
2022-10-14T20:58:20.907Z,3.80
2022-10-14T21:00:48.604Z,3.90
2022-10-14T21:03:16.380Z,3.53
2022-10-14T21:05:44.046Z,3.43
2022-10-14T21:08:11.716Z,3.20
2022-10-14T21:10:39.464Z,3.60
2022-10-14T21:13:08.543Z,4.10
2022-10-14T21:15:36.238Z,3.40
2022-10-14T21:18:03.917Z,3.40
2022-10-14T21:20:31.648Z,3.47
2022-10-14T21:22:59.320Z,2.97
2022-10-14T21:25:27.021Z,3.17
2022-10-14T21:27:54.723Z,3.20
2022-10-14T21:30:23.810Z,2.90
2022-10-14T21:32:51.578Z,2.77
2022-10-14T21:35:19.285Z,4.27
2022-10-14T21:37:46.979Z,2.77
2022-10-14T21:40:15.438Z,4.30
2022-10-14T21:42:43.123Z,4.33
2022-10-14T21:45:11.312Z,2.93
2022-10-14T21:47:40.599Z,2.50
2022-10-14T21:50:08.964Z,2.77
2022-10-14T21:52:36.609Z,2.20
2022-10-14T21:55:04.731Z,4.00
2022-10-14T21:57:32.410Z,2.53
2022-10-14T22:00:00.081Z,2.40
2022-10-14T22:02:27.739Z,1.87
2022-10-14T22:04:56.782Z,2.10
2022-10-14T22:07:24.877Z,2.53
2022-10-14T22:09:52.942Z,2.00
2022-10-14T22:12:20.590Z,3.33
2022-10-14T22:14:48.272Z,2.37
2022-10-14T22:17:16.123Z,2.13
2022-10-14T22:19:43.748Z,1.70
2022-10-14T22:22:12.827Z,1.70
2022-10-14T22:24:40.486Z,1.70
2022-10-14T22:27:08.154Z,2.23
2022-10-14T22:29:35.799Z,1.77
2022-10-14T22:32:03.473Z,1.60
2022-10-14T22:34:31.141Z,1.53
2022-10-14T22:36:59.477Z,1.53
2022-10-14T22:39:28.491Z,1.60
2022-10-14T22:41:56.147Z,2.20
2022-10-14T22:44:23.820Z,1.60
2022-10-14T22:46:51.474Z,1.50
2022-10-14T22:49:19.139Z,1.77
2022-10-14T22:51:47.184Z,1.60
2022-10-14T22:54:14.929Z,1.60
2022-10-14T22:56:43.951Z,1.67
2022-10-14T22:59:12.634Z,1.63
2022-10-14T23:01:41.508Z,2.70
2022-10-14T23:04:09.742Z,2.77
2022-10-14T23:06:37.814Z,1.60
2022-10-14T23:09:05.628Z,2.47
2022-10-14T23:11:37.461Z,1.77
2022-10-14T23:14:07.617Z,1.73
2022-10-14T23:16:35.739Z,1.57
2022-10-14T23:19:03.543Z,1.30
2022-10-14T23:21:33.034Z,1.70
2022-10-14T23:24:03.758Z,1.50
2022-10-14T23:26:34.395Z,1.50
2022-10-14T23:29:04.008Z,1.63
2022-10-14T23:31:35.331Z,1.50
2022-10-14T23:34:05.093Z,1.70
2022-10-14T23:36:33.482Z,1.40
2022-10-14T23:39:01.138Z,1.90
2022-10-14T23:41:29.003Z,1.70
2022-10-14T23:43:56.872Z,1.60
2022-10-14T23:46:25.431Z,1.60
2022-10-14T23:49:06.741Z,1.70
2022-10-14T23:51:35.953Z,1.87
2022-10-14T23:54:04.297Z,2.37
2022-10-14T23:56:32.050Z,1.93
2022-10-14T23:58:59.710Z,1.53
